sensor_id;sensor_type;location;lat;lon;timestamp;temperature;humidity
24011;DHT22;12217;50.792;4.372;2022-12-05T00:00:52;5.20;99.90
24011;DHT22;12217;50.792;4.372;2022-12-05T00:03:18;5.10;99.90
24011;DHT22;12217;50.792;4.372;2022-12-05T00:05:44;5.10;99.90
24011;DHT22;12217;50.792;4.372;2022-12-05T00:08:09;5.10;99.90
24011;DHT22;12217;50.792;4.372;2022-12-05T00:10:36;5.10;99.90
24011;DHT22;12217;50.792;4.372;2022-12-05T00:13:02;5.20;99.90
24011;DHT22;12217;50.792;4.372;2022-12-05T00:15:27;5.10;99.90
24011;DHT22;12217;50.792;4.372;2022-12-05T00:17:53;5.10;99.90
24011;DHT22;12217;50.792;4.372;2022-12-05T00:20:18;5.10;99.90
24011;DHT22;12217;50.792;4.372;2022-12-05T00:22:45;5.10;99.90
24011;DHT22;12217;50.792;4.372;2022-12-05T00:25:11;5.10;99.90
24011;DHT22;12217;50.792;4.372;2022-12-05T00:27:36;5.00;99.90
24011;DHT22;12217;50.792;4.372;2022-12-05T00:30:02;5.00;99.90
24011;DHT22;12217;50.792;4.372;2022-12-05T00:32:28;5.00;99.90
24011;DHT22;12217;50.792;4.372;2022-12-05T00:34:55;5.00;99.90
24011;DHT22;12217;50.792;4.372;2022-12-05T00:37:20;5.00;99.90
24011;DHT22;12217;50.792;4.372;2022-12-05T00:39:46;5.10;99.90
24011;DHT22;12217;50.792;4.372;2022-12-05T00:42:12;5.20;99.90
24011;DHT22;12217;50.792;4.372;2022-12-05T00:44:37;5.30;99.90
24011;DHT22;12217;50.792;4.372;2022-12-05T00:47:04;5.20;99.90
24011;DHT22;12217;50.792;4.372;2022-12-05T00:49:29;5.10;99.90
24011;DHT22;12217;50.792;4.372;2022-12-05T00:51:55;5.00;99.90
24011;DHT22;12217;50.792;4.372;2022-12-05T00:54:21;5.00;99.90
24011;DHT22;12217;50.792;4.372;2022-12-05T00:56:46;5.10;99.90
24011;DHT22;12217;50.792;4.372;2022-12-05T00:59:16;5.00;99.90
24011;DHT22;12217;50.792;4.372;2022-12-05T01:01:44;5.00;99.90
24011;DHT22;12217;50.792;4.372;2022-12-05T01:04:16;5.00;99.90
24011;DHT22;12217;50.792;4.372;2022-12-05T01:06:42;5.10;99.90
24011;DHT22;12217;50.792;4.372;2022-12-05T01:09:09;5.10;99.90
24011;DHT22;12217;50.792;4.372;2022-12-05T01:11:35;5.10;99.90
24011;DHT22;12217;50.792;4.372;2022-12-05T01:14:01;5.10;99.90
24011;DHT22;12217;50.792;4.372;2022-12-05T01:16:31;5.20;99.90
24011;DHT22;12217;50.792;4.372;2022-12-05T01:18:58;5.10;99.90
24011;DHT22;12217;50.792;4.372;2022-12-05T01:21:24;5.20;99.90
24011;DHT22;12217;50.792;4.372;2022-12-05T01:23:50;5.10;99.90
24011;DHT22;12217;50.792;4.372;2022-12-05T01:26:19;5.10;99.90
24011;DHT22;12217;50.792;4.372;2022-12-05T01:28:45;5.10;99.90
24011;DHT22;12217;50.792;4.372;2022-12-05T01:33:47;5.20;99.90
24011;DHT22;12217;50.792;4.372;2022-12-05T01:36:13;5.20;99.90
24011;DHT22;12217;50.792;4.372;2022-12-05T01:38:40;5.20;99.90
24011;DHT22;12217;50.792;4.372;2022-12-05T01:41:09;5.10;99.90
24011;DHT22;12217;50.792;4.372;2022-12-05T01:46:33;5.00;99.90
24011;DHT22;12217;50.792;4.372;2022-12-05T01:49:06;5.10;99.90
24011;DHT22;12217;50.792;4.372;2022-12-05T01:51:35;5.10;99.90
24011;DHT22;12217;50.792;4.372;2022-12-05T01:54:03;5.20;99.90
24011;DHT22;12217;50.792;4.372;2022-12-05T01:56:30;5.10;99.90
24011;DHT22;12217;50.792;4.372;2022-12-05T01:58:58;5.20;99.90
24011;DHT22;12217;50.792;4.372;2022-12-05T02:01:25;5.10;99.90
24011;DHT22;12217;50.792;4.372;2022-12-05T02:03:52;5.10;99.90
24011;DHT22;12217;50.792;4.372;2022-12-05T02:06:19;5.10;99.90
24011;DHT22;12217;50.792;4.372;2022-12-05T02:08:46;5.10;99.90
24011;DHT22;12217;50.792;4.372;2022-12-05T02:11:12;5.00;99.90
24011;DHT22;12217;50.792;4.372;2022-12-05T02:22:26;5.00;99.90
24011;DHT22;12217;50.792;4.372;2022-12-05T02:41:18;5.00;99.90
24011;DHT22;12217;50.792;4.372;2022-12-05T02:46:26;5.00;99.90
24011;DHT22;12217;50.792;4.372;2022-12-05T02:48:56;5.00;99.90
24011;DHT22;12217;50.792;4.372;2022-12-05T02:51:26;5.10;99.90
24011;DHT22;12217;50.792;4.372;2022-12-05T02:53:54;5.10;99.90
24011;DHT22;12217;50.792;4.372;2022-12-05T02:56:22;5.00;99.90
24011;DHT22;12217;50.792;4.372;2022-12-05T02:58:51;5.00;99.90
24011;DHT22;12217;50.792;4.372;2022-12-05T03:01:19;5.10;99.90
24011;DHT22;12217;50.792;4.372;2022-12-05T03:03:46;5.10;99.90
24011;DHT22;12217;50.792;4.372;2022-12-05T03:06:15;5.20;99.90
24011;DHT22;12217;50.792;4.372;2022-12-05T03:08:53;5.20;99.90
24011;DHT22;12217;50.792;4.372;2022-12-05T03:11:20;5.20;99.90
24011;DHT22;12217;50.792;4.372;2022-12-05T03:13:57;5.20;99.90
24011;DHT22;12217;50.792;4.372;2022-12-05T03:16:30;5.20;99.90
24011;DHT22;12217;50.792;4.372;2022-12-05T03:19:04;5.10;99.90
24011;DHT22;12217;50.792;4.372;2022-12-05T03:21:39;5.10;99.90
24011;DHT22;12217;50.792;4.372;2022-12-05T03:24:10;5.10;99.90
24011;DHT22;12217;50.792;4.372;2022-12-05T03:40:25;5.20;99.90
24011;DHT22;12217;50.792;4.372;2022-12-05T03:45:33;5.20;99.90
24011;DHT22;12217;50.792;4.372;2022-12-05T03:48:29;5.20;99.90
24011;DHT22;12217;50.792;4.372;2022-12-05T03:50:58;5.20;99.90
24011;DHT22;12217;50.792;4.372;2022-12-05T03:53:32;5.20;99.90
24011;DHT22;12217;50.792;4.372;2022-12-05T03:56:09;5.30;99.90
24011;DHT22;12217;50.792;4.372;2022-12-05T03:58:55;5.30;99.90
24011;DHT22;12217;50.792;4.372;2022-12-05T04:01:22;5.30;99.90
24011;DHT22;12217;50.792;4.372;2022-12-05T04:03:53;5.30;99.90
24011;DHT22;12217;50.792;4.372;2022-12-05T04:06:35;5.30;99.90
24011;DHT22;12217;50.792;4.372;2022-12-05T04:09:08;5.20;99.90
24011;DHT22;12217;50.792;4.372;2022-12-05T04:11:39;5.30;99.90
24011;DHT22;12217;50.792;4.372;2022-12-05T04:14:14;5.20;99.90
24011;DHT22;12217;50.792;4.372;2022-12-05T04:16:46;5.20;99.90
24011;DHT22;12217;50.792;4.372;2022-12-05T04:19:47;5.20;99.90
24011;DHT22;12217;50.792;4.372;2022-12-05T04:22:32;5.30;99.90
24011;DHT22;12217;50.792;4.372;2022-12-05T04:25:00;5.30;99.90
24011;DHT22;12217;50.792;4.372;2022-12-05T04:31:02;5.20;99.90
24011;DHT22;12217;50.792;4.372;2022-12-05T04:33:45;5.20;99.90
24011;DHT22;12217;50.792;4.372;2022-12-05T04:41:21;5.20;99.90
24011;DHT22;12217;50.792;4.372;2022-12-05T04:43:48;5.20;99.90
24011;DHT22;12217;50.792;4.372;2022-12-05T04:46:17;5.20;99.90
24011;DHT22;12217;50.792;4.372;2022-12-05T04:48:48;5.20;99.90
24011;DHT22;12217;50.792;4.372;2022-12-05T04:51:19;5.20;99.90
24011;DHT22;12217;50.792;4.372;2022-12-05T04:53:49;5.20;99.90
24011;DHT22;12217;50.792;4.372;2022-12-05T04:56:17;5.10;99.90
24011;DHT22;12217;50.792;4.372;2022-12-05T04:58:44;5.10;99.90
24011;DHT22;12217;50.792;4.372;2022-12-05T05:03:44;5.20;99.90
24011;DHT22;12217;50.792;4.372;2022-12-05T05:06:12;5.20;99.90
24011;DHT22;12217;50.792;4.372;2022-12-05T05:09:00;5.20;99.90
24011;DHT22;12217;50.792;4.372;2022-12-05T05:11:27;5.20;99.90
24011;DHT22;12217;50.792;4.372;2022-12-05T05:13:54;5.30;99.90
24011;DHT22;12217;50.792;4.372;2022-12-05T05:16:23;5.30;99.90
24011;DHT22;12217;50.792;4.372;2022-12-05T05:18:50;5.30;99.90
24011;DHT22;12217;50.792;4.372;2022-12-05T05:21:28;5.30;99.90
24011;DHT22;12217;50.792;4.372;2022-12-05T05:23:55;5.30;99.90
24011;DHT22;12217;50.792;4.372;2022-12-05T05:26:21;5.30;99.90
24011;DHT22;12217;50.792;4.372;2022-12-05T05:28:47;5.40;99.90
24011;DHT22;12217;50.792;4.372;2022-12-05T05:31:14;5.40;99.90
24011;DHT22;12217;50.792;4.372;2022-12-05T05:33:40;5.30;99.90
24011;DHT22;12217;50.792;4.372;2022-12-05T05:36:08;5.30;99.90
24011;DHT22;12217;50.792;4.372;2022-12-05T05:38:38;5.30;99.90
24011;DHT22;12217;50.792;4.372;2022-12-05T05:41:05;5.20;99.90
24011;DHT22;12217;50.792;4.372;2022-12-05T05:43:31;5.30;99.90
24011;DHT22;12217;50.792;4.372;2022-12-05T05:45:57;5.30;99.90
24011;DHT22;12217;50.792;4.372;2022-12-05T05:48:22;5.40;99.90
24011;DHT22;12217;50.792;4.372;2022-12-05T05:50:48;5.30;99.90
24011;DHT22;12217;50.792;4.372;2022-12-05T05:53:14;5.30;99.90
24011;DHT22;12217;50.792;4.372;2022-12-05T05:55:40;5.20;99.90
24011;DHT22;12217;50.792;4.372;2022-12-05T05:58:06;5.40;99.90
24011;DHT22;12217;50.792;4.372;2022-12-05T06:00:32;5.20;99.90
24011;DHT22;12217;50.792;4.372;2022-12-05T06:02:57;5.30;99.90
24011;DHT22;12217;50.792;4.372;2022-12-05T06:05:23;5.30;99.90
24011;DHT22;12217;50.792;4.372;2022-12-05T06:07:51;5.40;99.90
24011;DHT22;12217;50.792;4.372;2022-12-05T06:10:17;5.30;99.90
24011;DHT22;12217;50.792;4.372;2022-12-05T06:12:42;5.40;99.90
24011;DHT22;12217;50.792;4.372;2022-12-05T06:15:08;5.30;99.90
24011;DHT22;12217;50.792;4.372;2022-12-05T06:17:34;5.30;99.90
24011;DHT22;12217;50.792;4.372;2022-12-05T06:19:59;5.30;99.90
24011;DHT22;12217;50.792;4.372;2022-12-05T06:22:25;5.30;99.90
24011;DHT22;12217;50.792;4.372;2022-12-05T06:24:51;5.40;99.90
24011;DHT22;12217;50.792;4.372;2022-12-05T06:27:16;5.40;99.90
24011;DHT22;12217;50.792;4.372;2022-12-05T06:29:42;5.40;99.90
24011;DHT22;12217;50.792;4.372;2022-12-05T06:32:08;5.30;99.90
24011;DHT22;12217;50.792;4.372;2022-12-05T06:34:33;5.30;99.90
24011;DHT22;12217;50.792;4.372;2022-12-05T06:37:00;5.30;99.90
24011;DHT22;12217;50.792;4.372;2022-12-05T06:39:25;5.30;99.90
24011;DHT22;12217;50.792;4.372;2022-12-05T06:41:51;5.30;99.90
24011;DHT22;12217;50.792;4.372;2022-12-05T06:44:17;5.40;99.90
24011;DHT22;12217;50.792;4.372;2022-12-05T06:46:42;5.50;99.90
24011;DHT22;12217;50.792;4.372;2022-12-05T06:49:09;5.50;99.90
24011;DHT22;12217;50.792;4.372;2022-12-05T06:51:35;5.50;99.90
24011;DHT22;12217;50.792;4.372;2022-12-05T06:54:01;5.50;99.90
24011;DHT22;12217;50.792;4.372;2022-12-05T06:56:27;5.50;99.90
24011;DHT22;12217;50.792;4.372;2022-12-05T06:58:54;5.40;99.90
24011;DHT22;12217;50.792;4.372;2022-12-05T07:01:22;5.40;99.90
24011;DHT22;12217;50.792;4.372;2022-12-05T07:04:05;5.40;99.90
24011;DHT22;12217;50.792;4.372;2022-12-05T07:06:32;5.50;99.90
24011;DHT22;12217;50.792;4.372;2022-12-05T07:08:58;5.40;99.90
24011;DHT22;12217;50.792;4.372;2022-12-05T07:11:25;5.40;99.90
24011;DHT22;12217;50.792;4.372;2022-12-05T07:13:51;5.40;99.90
24011;DHT22;12217;50.792;4.372;2022-12-05T07:16:17;5.50;99.90
24011;DHT22;12217;50.792;4.372;2022-12-05T07:18:42;5.50;99.90
24011;DHT22;12217;50.792;4.372;2022-12-05T07:21:11;5.50;99.90
24011;DHT22;12217;50.792;4.372;2022-12-05T07:23:37;5.50;99.90
24011;DHT22;12217;50.792;4.372;2022-12-05T07:26:07;5.50;99.90
24011;DHT22;12217;50.792;4.372;2022-12-05T07:28:33;5.50;99.90
24011;DHT22;12217;50.792;4.372;2022-12-05T07:31:04;5.50;99.90
24011;DHT22;12217;50.792;4.372;2022-12-05T07:33:30;5.50;99.90
24011;DHT22;12217;50.792;4.372;2022-12-05T07:36:01;5.60;99.90
24011;DHT22;12217;50.792;4.372;2022-12-05T07:38:28;5.50;99.90
24011;DHT22;12217;50.792;4.372;2022-12-05T07:40:54;5.50;99.90
24011;DHT22;12217;50.792;4.372;2022-12-05T07:43:20;5.50;99.90
24011;DHT22;12217;50.792;4.372;2022-12-05T07:45:46;5.50;99.90
24011;DHT22;12217;50.792;4.372;2022-12-05T07:48:12;5.60;99.90
24011;DHT22;12217;50.792;4.372;2022-12-05T07:50:37;5.60;99.90
24011;DHT22;12217;50.792;4.372;2022-12-05T07:53:03;5.80;99.90
24011;DHT22;12217;50.792;4.372;2022-12-05T07:55:29;5.70;99.90
24011;DHT22;12217;50.792;4.372;2022-12-05T07:57:54;5.60;99.90
24011;DHT22;12217;50.792;4.372;2022-12-05T08:00:20;5.60;99.90
24011;DHT22;12217;50.792;4.372;2022-12-05T08:02:46;5.70;99.90
24011;DHT22;12217;50.792;4.372;2022-12-05T08:05:12;5.70;99.90
24011;DHT22;12217;50.792;4.372;2022-12-05T08:07:37;5.70;99.90
24011;DHT22;12217;50.792;4.372;2022-12-05T08:10:03;5.70;99.90
24011;DHT22;12217;50.792;4.372;2022-12-05T08:12:29;5.70;99.90
24011;DHT22;12217;50.792;4.372;2022-12-05T08:14:55;5.70;99.90
24011;DHT22;12217;50.792;4.372;2022-12-05T08:17:21;5.80;99.90
24011;DHT22;12217;50.792;4.372;2022-12-05T08:19:46;5.70;99.90
24011;DHT22;12217;50.792;4.372;2022-12-05T08:22:12;5.70;99.90
24011;DHT22;12217;50.792;4.372;2022-12-05T08:24:38;5.70;99.90
24011;DHT22;12217;50.792;4.372;2022-12-05T08:27:04;5.60;99.90
24011;DHT22;12217;50.792;4.372;2022-12-05T08:29:30;5.70;99.90
24011;DHT22;12217;50.792;4.372;2022-12-05T08:31:56;5.70;99.90
24011;DHT22;12217;50.792;4.372;2022-12-05T08:34:22;5.60;99.90
24011;DHT22;12217;50.792;4.372;2022-12-05T08:36:48;5.60;99.90
24011;DHT22;12217;50.792;4.372;2022-12-05T08:39:16;5.70;99.90
24011;DHT22;12217;50.792;4.372;2022-12-05T08:41:46;5.80;99.90
24011;DHT22;12217;50.792;4.372;2022-12-05T08:44:13;5.70;99.90
24011;DHT22;12217;50.792;4.372;2022-12-05T08:46:42;5.80;99.90
24011;DHT22;12217;50.792;4.372;2022-12-05T08:49:10;5.70;99.90
24011;DHT22;12217;50.792;4.372;2022-12-05T08:51:36;5.80;99.90
24011;DHT22;12217;50.792;4.372;2022-12-05T08:54:03;5.70;99.90
24011;DHT22;12217;50.792;4.372;2022-12-05T08:56:29;5.80;99.90
24011;DHT22;12217;50.792;4.372;2022-12-05T08:58:55;5.80;99.90
24011;DHT22;12217;50.792;4.372;2022-12-05T09:01:22;5.80;99.90
24011;DHT22;12217;50.792;4.372;2022-12-05T09:03:50;5.80;99.90
24011;DHT22;12217;50.792;4.372;2022-12-05T09:06:18;5.90;99.90
24011;DHT22;12217;50.792;4.372;2022-12-05T09:08:44;5.90;99.90
24011;DHT22;12217;50.792;4.372;2022-12-05T09:11:15;5.80;99.90
24011;DHT22;12217;50.792;4.372;2022-12-05T09:13:41;5.80;99.90
24011;DHT22;12217;50.792;4.372;2022-12-05T09:16:13;5.80;99.90
24011;DHT22;12217;50.792;4.372;2022-12-05T09:18:39;5.90;99.90
24011;DHT22;12217;50.792;4.372;2022-12-05T09:21:18;5.80;99.90
24011;DHT22;12217;50.792;4.372;2022-12-05T09:23:44;5.80;99.90
24011;DHT22;12217;50.792;4.372;2022-12-05T09:26:12;5.80;99.90
24011;DHT22;12217;50.792;4.372;2022-12-05T09:28:39;5.80;99.90
24011;DHT22;12217;50.792;4.372;2022-12-05T09:31:11;5.90;99.90
24011;DHT22;12217;50.792;4.372;2022-12-05T09:33:37;5.90;99.90
24011;DHT22;12217;50.792;4.372;2022-12-05T09:36:05;6.00;99.90
24011;DHT22;12217;50.792;4.372;2022-12-05T09:38:32;6.10;99.90
24011;DHT22;12217;50.792;4.372;2022-12-05T09:44:18;6.10;99.90
24011;DHT22;12217;50.792;4.372;2022-12-05T09:46:57;6.20;99.90
24011;DHT22;12217;50.792;4.372;2022-12-05T09:49:25;6.10;99.90
24011;DHT22;12217;50.792;4.372;2022-12-05T09:51:52;6.10;99.90
24011;DHT22;12217;50.792;4.372;2022-12-05T09:54:19;6.20;99.90
24011;DHT22;12217;50.792;4.372;2022-12-05T09:56:48;6.20;99.90
24011;DHT22;12217;50.792;4.372;2022-12-05T09:59:15;6.20;99.90
24011;DHT22;12217;50.792;4.372;2022-12-05T10:15:47;6.40;99.90
24011;DHT22;12217;50.792;4.372;2022-12-05T10:21:03;6.50;99.90
24011;DHT22;12217;50.792;4.372;2022-12-05T10:23:55;6.50;99.90
24011;DHT22;12217;50.792;4.372;2022-12-05T10:26:24;6.40;99.90
24011;DHT22;12217;50.792;4.372;2022-12-05T10:31:49;6.50;99.90
24011;DHT22;12217;50.792;4.372;2022-12-05T10:34:40;6.40;99.90
24011;DHT22;12217;50.792;4.372;2022-12-05T10:37:18;6.50;99.90
24011;DHT22;12217;50.792;4.372;2022-12-05T10:39:45;6.50;99.90
24011;DHT22;12217;50.792;4.372;2022-12-05T10:42:15;6.60;99.90
24011;DHT22;12217;50.792;4.372;2022-12-05T10:44:42;6.60;99.90
24011;DHT22;12217;50.792;4.372;2022-12-05T10:47:08;6.50;99.90
24011;DHT22;12217;50.792;4.372;2022-12-05T10:49:36;6.70;99.90
24011;DHT22;12217;50.792;4.372;2022-12-05T10:52:03;6.70;99.90
24011;DHT22;12217;50.792;4.372;2022-12-05T10:54:32;6.60;99.90
24011;DHT22;12217;50.792;4.372;2022-12-05T10:57:25;6.60;99.90
24011;DHT22;12217;50.792;4.372;2022-12-05T10:59:51;6.50;99.90
24011;DHT22;12217;50.792;4.372;2022-12-05T11:02:28;6.60;99.90
24011;DHT22;12217;50.792;4.372;2022-12-05T11:04:56;6.70;99.90
24011;DHT22;12217;50.792;4.372;2022-12-05T11:07:25;6.70;99.90
24011;DHT22;12217;50.792;4.372;2022-12-05T11:09:51;6.70;99.90
24011;DHT22;12217;50.792;4.372;2022-12-05T11:12:22;6.70;99.90
24011;DHT22;12217;50.792;4.372;2022-12-05T11:17:32;6.60;99.90
24011;DHT22;12217;50.792;4.372;2022-12-05T11:19:58;6.60;99.90
24011;DHT22;12217;50.792;4.372;2022-12-05T11:22:34;6.60;99.90
24011;DHT22;12217;50.792;4.372;2022-12-05T11:25:00;6.70;99.90
24011;DHT22;12217;50.792;4.372;2022-12-05T11:27:44;6.70;99.90
24011;DHT22;12217;50.792;4.372;2022-12-05T11:32:36;6.80;99.90
24011;DHT22;12217;50.792;4.372;2022-12-05T11:37:56;6.60;99.90
24011;DHT22;12217;50.792;4.372;2022-12-05T11:40:46;6.60;99.90
24011;DHT22;12217;50.792;4.372;2022-12-05T11:53:45;6.80;99.90
24011;DHT22;12217;50.792;4.372;2022-12-05T11:59:35;6.60;99.90
24011;DHT22;12217;50.792;4.372;2022-12-05T12:13:50;6.80;99.90
24011;DHT22;12217;50.792;4.372;2022-12-05T12:16:12;6.80;99.90
24011;DHT22;12217;50.792;4.372;2022-12-05T12:21:39;6.80;99.90
24011;DHT22;12217;50.792;4.372;2022-12-05T12:40:52;7.00;99.90
24011;DHT22;12217;50.792;4.372;2022-12-05T12:49:28;7.00;99.90
24011;DHT22;12217;50.792;4.372;2022-12-05T12:52:02;6.90;99.90
24011;DHT22;12217;50.792;4.372;2022-12-05T12:54:32;6.90;99.90
24011;DHT22;12217;50.792;4.372;2022-12-05T12:57:11;6.90;99.90
24011;DHT22;12217;50.792;4.372;2022-12-05T13:07:46;7.00;99.90
24011;DHT22;12217;50.792;4.372;2022-12-05T13:10:32;7.10;99.90
24011;DHT22;12217;50.792;4.372;2022-12-05T13:13:02;7.00;99.90
24011;DHT22;12217;50.792;4.372;2022-12-05T13:15:40;7.00;99.90
24011;DHT22;12217;50.792;4.372;2022-12-05T13:18:16;7.00;99.90
24011;DHT22;12217;50.792;4.372;2022-12-05T13:20:42;7.10;99.90
24011;DHT22;12217;50.792;4.372;2022-12-05T13:23:13;7.00;99.90
24011;DHT22;12217;50.792;4.372;2022-12-05T13:25:39;6.90;99.90
24011;DHT22;12217;50.792;4.372;2022-12-05T13:28:30;6.90;99.90
24011;DHT22;12217;50.792;4.372;2022-12-05T13:30:58;6.90;99.90
24011;DHT22;12217;50.792;4.372;2022-12-05T13:33:52;6.80;99.90
24011;DHT22;12217;50.792;4.372;2022-12-05T13:36:21;6.90;99.90
24011;DHT22;12217;50.792;4.372;2022-12-05T13:41:56;7.00;99.90
24011;DHT22;12217;50.792;4.372;2022-12-05T13:44:46;7.10;99.90
24011;DHT22;12217;50.792;4.372;2022-12-05T13:47:30;7.00;99.90
24011;DHT22;12217;50.792;4.372;2022-12-05T13:53:23;6.90;99.90
24011;DHT22;12217;50.792;4.372;2022-12-05T13:55:39;6.80;99.90
24011;DHT22;12217;50.792;4.372;2022-12-05T14:00:43;6.70;99.90
24011;DHT22;12217;50.792;4.372;2022-12-05T14:05:59;6.80;99.90
24011;DHT22;12217;50.792;4.372;2022-12-05T14:15:49;7.00;99.90
24011;DHT22;12217;50.792;4.372;2022-12-05T14:18:41;7.00;99.90
24011;DHT22;12217;50.792;4.372;2022-12-05T14:24:14;7.10;99.90
24011;DHT22;12217;50.792;4.372;2022-12-05T14:35:15;7.30;99.90
24011;DHT22;12217;50.792;4.372;2022-12-05T14:38:03;7.20;99.90
24011;DHT22;12217;50.792;4.372;2022-12-05T14:40:33;7.10;99.90
24011;DHT22;12217;50.792;4.372;2022-12-05T14:43:01;7.10;99.90
24011;DHT22;12217;50.792;4.372;2022-12-05T14:45:39;7.10;99.90
24011;DHT22;12217;50.792;4.372;2022-12-05T14:50:44;7.20;99.90
24011;DHT22;12217;50.792;4.372;2022-12-05T14:56:04;7.10;99.90
24011;DHT22;12217;50.792;4.372;2022-12-05T15:01:56;7.10;99.90
24011;DHT22;12217;50.792;4.372;2022-12-05T15:04:41;7.00;99.90
24011;DHT22;12217;50.792;4.372;2022-12-05T15:12:42;6.90;99.90
24011;DHT22;12217;50.792;4.372;2022-12-05T15:17:56;6.90;99.90
24011;DHT22;12217;50.792;4.372;2022-12-05T15:20:57;6.80;99.90
24011;DHT22;12217;50.792;4.372;2022-12-05T15:31:30;6.80;99.90
24011;DHT22;12217;50.792;4.372;2022-12-05T15:34:01;6.60;99.90
24011;DHT22;12217;50.792;4.372;2022-12-05T15:36:34;6.50;99.90
24011;DHT22;12217;50.792;4.372;2022-12-05T15:39:02;6.50;99.90
24011;DHT22;12217;50.792;4.372;2022-12-05T15:41:28;6.60;99.90
24011;DHT22;12217;50.792;4.372;2022-12-05T15:43:55;6.70;99.90
24011;DHT22;12217;50.792;4.372;2022-12-05T15:46:23;6.70;99.90
24011;DHT22;12217;50.792;4.372;2022-12-05T15:48:54;6.70;99.90
24011;DHT22;12217;50.792;4.372;2022-12-05T15:51:30;6.50;99.90
24011;DHT22;12217;50.792;4.372;2022-12-05T15:56:33;6.70;99.90
24011;DHT22;12217;50.792;4.372;2022-12-05T15:59:04;6.60;99.90
24011;DHT22;12217;50.792;4.372;2022-12-05T16:01:44;6.70;99.90
24011;DHT22;12217;50.792;4.372;2022-12-05T16:04:28;6.70;99.90
24011;DHT22;12217;50.792;4.372;2022-12-05T16:06:55;6.50;99.90
24011;DHT22;12217;50.792;4.372;2022-12-05T16:09:25;6.50;99.90
24011;DHT22;12217;50.792;4.372;2022-12-05T16:11:59;6.60;99.90
24011;DHT22;12217;50.792;4.372;2022-12-05T16:14:32;6.40;99.90
24011;DHT22;12217;50.792;4.372;2022-12-05T16:17:01;6.40;99.90
24011;DHT22;12217;50.792;4.372;2022-12-05T16:19:29;6.50;99.90
24011;DHT22;12217;50.792;4.372;2022-12-05T16:22:20;6.60;99.90
24011;DHT22;12217;50.792;4.372;2022-12-05T16:25:00;6.80;99.90
24011;DHT22;12217;50.792;4.372;2022-12-05T16:27:33;6.90;99.90
24011;DHT22;12217;50.792;4.372;2022-12-05T16:30:29;6.90;99.90
24011;DHT22;12217;50.792;4.372;2022-12-05T16:33:01;6.80;99.90
24011;DHT22;12217;50.792;4.372;2022-12-05T16:35:38;6.80;99.90
24011;DHT22;12217;50.792;4.372;2022-12-05T16:38:13;6.80;99.90
24011;DHT22;12217;50.792;4.372;2022-12-05T16:45:50;6.70;99.90
24011;DHT22;12217;50.792;4.372;2022-12-05T16:48:28;6.60;99.90
24011;DHT22;12217;50.792;4.372;2022-12-05T16:53:43;6.50;99.90
24011;DHT22;12217;50.792;4.372;2022-12-05T16:56:26;6.70;99.90
24011;DHT22;12217;50.792;4.372;2022-12-05T16:58:52;6.60;99.90
24011;DHT22;12217;50.792;4.372;2022-12-05T17:01:20;6.50;99.90
24011;DHT22;12217;50.792;4.372;2022-12-05T17:03:46;6.40;99.90
24011;DHT22;12217;50.792;4.372;2022-12-05T17:06:12;6.40;99.90
24011;DHT22;12217;50.792;4.372;2022-12-05T17:08:39;6.40;99.90
24011;DHT22;12217;50.792;4.372;2022-12-05T17:11:13;6.40;99.90
24011;DHT22;12217;50.792;4.372;2022-12-05T17:13:40;6.50;99.90
24011;DHT22;12217;50.792;4.372;2022-12-05T17:16:06;6.50;99.90
24011;DHT22;12217;50.792;4.372;2022-12-05T17:18:32;6.40;99.90
24011;DHT22;12217;50.792;4.372;2022-12-05T17:20:59;6.60;99.90
24011;DHT22;12217;50.792;4.372;2022-12-05T17:23:25;6.60;99.90
24011;DHT22;12217;50.792;4.372;2022-12-05T17:25:55;6.70;99.90
24011;DHT22;12217;50.792;4.372;2022-12-05T17:28:22;6.80;99.90
24011;DHT22;12217;50.792;4.372;2022-12-05T17:30:48;6.70;99.90
24011;DHT22;12217;50.792;4.372;2022-12-05T17:33:16;6.50;99.90
24011;DHT22;12217;50.792;4.372;2022-12-05T17:35:43;6.60;99.90
24011;DHT22;12217;50.792;4.372;2022-12-05T17:38:09;6.60;99.90
24011;DHT22;12217;50.792;4.372;2022-12-05T17:40:35;6.60;99.90
24011;DHT22;12217;50.792;4.372;2022-12-05T17:43:01;6.60;99.90
24011;DHT22;12217;50.792;4.372;2022-12-05T17:45:27;6.40;99.90
24011;DHT22;12217;50.792;4.372;2022-12-05T17:47:54;6.40;99.90
24011;DHT22;12217;50.792;4.372;2022-12-05T17:50:21;6.50;99.90
24011;DHT22;12217;50.792;4.372;2022-12-05T17:52:53;6.50;99.90
24011;DHT22;12217;50.792;4.372;2022-12-05T17:55:20;6.50;99.90
24011;DHT22;12217;50.792;4.372;2022-12-05T17:57:46;6.50;99.90
24011;DHT22;12217;50.792;4.372;2022-12-05T18:00:14;6.50;99.90
24011;DHT22;12217;50.792;4.372;2022-12-05T18:02:40;6.30;99.90
24011;DHT22;12217;50.792;4.372;2022-12-05T18:05:06;6.30;99.90
24011;DHT22;12217;50.792;4.372;2022-12-05T18:07:34;6.40;99.90
24011;DHT22;12217;50.792;4.372;2022-12-05T18:09:59;6.30;99.90
24011;DHT22;12217;50.792;4.372;2022-12-05T18:12:25;6.20;99.90
24011;DHT22;12217;50.792;4.372;2022-12-05T18:14:51;6.10;99.90
24011;DHT22;12217;50.792;4.372;2022-12-05T18:17:16;6.10;99.90
24011;DHT22;12217;50.792;4.372;2022-12-05T18:19:42;6.20;99.90
24011;DHT22;12217;50.792;4.372;2022-12-05T18:22:08;6.30;99.90
24011;DHT22;12217;50.792;4.372;2022-12-05T18:24:33;6.40;99.90
24011;DHT22;12217;50.792;4.372;2022-12-05T18:26:59;6.50;99.90
24011;DHT22;12217;50.792;4.372;2022-12-05T18:29:25;6.60;99.90
24011;DHT22;12217;50.792;4.372;2022-12-05T18:31:51;6.60;99.90
24011;DHT22;12217;50.792;4.372;2022-12-05T18:34:16;6.60;99.90
24011;DHT22;12217;50.792;4.372;2022-12-05T18:36:42;6.70;99.90
24011;DHT22;12217;50.792;4.372;2022-12-05T18:39:12;6.80;99.90
24011;DHT22;12217;50.792;4.372;2022-12-05T18:41:39;6.70;99.90
24011;DHT22;12217;50.792;4.372;2022-12-05T18:44:05;6.60;99.90
24011;DHT22;12217;50.792;4.372;2022-12-05T18:46:32;6.60;99.90
24011;DHT22;12217;50.792;4.372;2022-12-05T18:48:58;6.50;99.90
24011;DHT22;12217;50.792;4.372;2022-12-05T18:51:24;6.40;99.90
24011;DHT22;12217;50.792;4.372;2022-12-05T18:53:51;6.40;99.90
24011;DHT22;12217;50.792;4.372;2022-12-05T18:56:19;6.40;99.90
24011;DHT22;12217;50.792;4.372;2022-12-05T18:58:52;6.30;99.90
24011;DHT22;12217;50.792;4.372;2022-12-05T19:01:18;6.30;99.90
24011;DHT22;12217;50.792;4.372;2022-12-05T19:03:45;6.20;99.90
24011;DHT22;12217;50.792;4.372;2022-12-05T19:06:20;6.20;99.90
24011;DHT22;12217;50.792;4.372;2022-12-05T19:08:46;6.30;99.90
24011;DHT22;12217;50.792;4.372;2022-12-05T19:11:14;6.30;99.90
24011;DHT22;12217;50.792;4.372;2022-12-05T19:13:40;6.30;99.90
24011;DHT22;12217;50.792;4.372;2022-12-05T19:16:09;6.40;99.90
24011;DHT22;12217;50.792;4.372;2022-12-05T19:18:35;6.60;99.90
24011;DHT22;12217;50.792;4.372;2022-12-05T19:21:01;6.40;99.90
24011;DHT22;12217;50.792;4.372;2022-12-05T19:23:27;6.40;99.90
24011;DHT22;12217;50.792;4.372;2022-12-05T19:25:58;6.40;99.90
24011;DHT22;12217;50.792;4.372;2022-12-05T19:28:23;6.30;99.90
24011;DHT22;12217;50.792;4.372;2022-12-05T19:30:58;6.40;99.90
24011;DHT22;12217;50.792;4.372;2022-12-05T19:33:23;6.40;99.90
24011;DHT22;12217;50.792;4.372;2022-12-05T19:35:49;6.50;99.90